Time;durP1;ratioP1;P1;durP2;ratioP2;P2;SDS_P1;SDS_P2;PMS_P1;PMS_P2;Temp;Humidity;BMP_temperature;BMP_pressure;BME280_temperature;BME280_humidity;BME280_pressure;Samples;Min_cycle;Max_cycle;Signal;HPM_P1;HPM_P2
2022/03/15 00:01:28;;;;;;;4.90;4.07;;;6.90;99.90;;;;;;5047159;28;20660;-70
2022/03/15 00:03:55;;;;;;;6.45;3.40;;;6.90;99.90;;;;;;5050126;28;20229;-72
2022/03/15 00:06:21;;;;;;;5.22;3.25;;;6.90;99.90;;;;;;5047015;28;20204;-72
2022/03/15 00:08:48;;;;;;;4.20;3.42;;;6.90;99.90;;;;;;5050908;28;20277;-73
2022/03/15 00:11:15;;;;;;;3.42;3.13;;;6.80;99.90;;;;;;5047642;28;20632;-71
2022/03/15 00:13:43;;;;;;;4.05;3.65;;;6.80;99.90;;;;;;5044625;28;20774;-72
2022/03/15 00:16:10;;;;;;;4.30;3.35;;;6.80;99.90;;;;;;5041939;28;20548;-72
2022/03/15 00:18:37;;;;;;;4.28;3.00;;;6.70;99.90;;;;;;5052490;28;20228;-73
2022/03/15 00:21:09;;;;;;;2.75;2.55;;;6.70;99.90;;;;;;5048443;28;20217;-72
2022/03/15 00:23:35;;;;;;;4.47;3.33;;;6.80;99.90;;;;;;5047729;28;20224;-72
2022/03/15 00:26:02;;;;;;;4.47;3.55;;;6.80;99.90;;;;;;5043836;28;20571;-71
2022/03/15 00:28:31;;;;;;;4.50;3.90;;;6.80;99.90;;;;;;5046875;28;20238;-72
2022/03/15 00:30:59;;;;;;;3.53;2.90;;;6.70;99.90;;;;;;5046565;28;20193;-73
2022/03/15 00:33:26;;;;;;;4.65;3.40;;;6.70;99.90;;;;;;5045190;28;20604;-72
2022/03/15 00:35:53;;;;;;;2.75;2.50;;;6.60;99.90;;;;;;5047578;28;20200;-71
2022/03/15 00:38:20;;;;;;;3.53;3.22;;;6.60;99.90;;;;;;5052217;28;20366;-73
2022/03/15 00:40:47;;;;;;;4.40;3.40;;;6.60;99.90;;;;;;5056877;22;20553;-71
2022/03/15 00:43:13;;;;;;;4.28;3.88;;;6.60;99.90;;;;;;5026984;28;20263;-72
2022/03/15 00:45:40;;;;;;;3.35;3.13;;;6.60;99.90;;;;;;5030421;28;20205;-71
2022/03/15 00:48:08;;;;;;;3.58;3.28;;;6.60;99.90;;;;;;5033062;28;20231;-69
2022/03/15 00:50:39;;;;;;;3.22;2.88;;;6.60;99.90;;;;;;5038902;28;20256;-69
2022/03/15 00:53:06;;;;;;;3.10;2.90;;;6.60;99.90;;;;;;5030824;28;20846;-71
2022/03/15 00:55:33;;;;;;;2.67;2.47;;;6.60;99.90;;;;;;5030831;28;20603;-70
2022/03/15 00:57:59;;;;;;;3.83;3.40;;;6.60;99.90;;;;;;5030771;28;20210;-71
2022/03/15 01:00:27;;;;;;;7.25;3.90;;;6.60;99.90;;;;;;5035673;28;20232;-71
2022/03/15 01:02:54;;;;;;;2.80;2.20;;;6.60;99.90;;;;;;5030718;28;20230;-70
2022/03/15 01:05:22;;;;;;;3.50;3.20;;;6.60;99.90;;;;;;5037158;28;20278;-70
2022/03/15 01:07:49;;;;;;;4.88;3.40;;;6.60;99.90;;;;;;5031834;28;20218;-71
2022/03/15 01:10:15;;;;;;;4.78;3.22;;;6.50;99.90;;;;;;5032463;28;20712;-71
2022/03/15 01:12:42;;;;;;;4.43;2.95;;;6.60;99.90;;;;;;5032559;28;20212;-70
2022/03/15 01:15:10;;;;;;;2.50;2.30;;;6.50;99.90;;;;;;5031344;28;20269;-70
2022/03/15 01:17:36;;;;;;;3.88;2.63;;;6.50;99.90;;;;;;5040452;28;20273;-70
2022/03/15 01:20:04;;;;;;;5.03;4.15;;;6.50;99.90;;;;;;5032925;28;20230;-71
2022/03/15 01:22:33;;;;;;;4.97;4.20;;;6.50;99.90;;;;;;5028727;28;20817;-72
2022/03/15 01:24:59;;;;;;;3.72;3.42;;;6.50;99.90;;;;;;5031048;28;20732;-71
2022/03/15 01:27:26;;;;;;;4.10;3.70;;;6.50;99.90;;;;;;5029286;28;20251;-70
2022/03/15 01:29:54;;;;;;;3.70;2.45;;;6.50;99.90;;;;;;5030517;28;20644;-70
2022/03/15 01:32:20;;;;;;;4.43;3.60;;;6.50;99.90;;;;;;5031625;28;20203;-70
2022/03/15 01:34:47;;;;;;;5.57;3.33;;;6.50;99.90;;;;;;5030089;28;20737;-71
2022/03/15 01:37:14;;;;;;;8.68;3.22;;;6.50;99.90;;;;;;5035297;28;20203;-69
2022/03/15 01:39:42;;;;;;;3.78;3.25;;;6.50;99.90;;;;;;5038972;28;20292;-71
2022/03/15 01:42:09;;;;;;;3.70;3.40;;;6.50;99.90;;;;;;5031098;28;20204;-69
2022/03/15 01:44:37;;;;;;;3.95;3.40;;;6.50;99.90;;;;;;5029714;28;20681;-69
2022/03/15 01:47:04;;;;;;;3.95;3.33;;;6.50;99.90;;;;;;5029614;28;20308;-70
2022/03/15 01:49:31;;;;;;;3.13;2.70;;;6.50;99.90;;;;;;5029276;28;20654;-70
2022/03/15 01:51:57;;;;;;;4.65;3.83;;;6.50;99.90;;;;;;5022741;28;20201;-70
2022/03/15 01:54:24;;;;;;;3.30;2.90;;;6.50;99.90;;;;;;5030384;28;20251;-70
2022/03/15 01:56:52;;;;;;;4.40;3.30;;;6.50;99.90;;;;;;5029996;28;20213;-70
2022/03/15 01:59:19;;;;;;;7.15;3.83;;;6.50;99.90;;;;;;5023183;28;20289;-69
2022/03/15 02:01:47;;;;;;;4.70;3.17;;;6.40;99.90;;;;;;5022110;28;20212;-70
2022/03/15 02:04:15;;;;;;;4.10;3.38;;;6.50;99.90;;;;;;5033017;28;20200;-70
2022/03/15 02:06:42;;;;;;;4.40;3.30;;;6.40;99.90;;;;;;5029765;28;20216;-69
2022/03/15 02:09:09;;;;;;;4.88;2.90;;;6.40;99.90;;;;;;5043687;28;20208;-70
2022/03/15 02:11:36;;;;;;;3.80;3.05;;;6.40;99.90;;;;;;5030553;28;20212;-69
2022/03/15 02:14:05;;;;;;;4.50;4.00;;;6.40;99.90;;;;;;5028733;28;20209;-70
2022/03/15 02:16:32;;;;;;;2.78;2.58;;;6.40;99.90;;;;;;5024757;28;20212;-70
2022/03/15 02:19:00;;;;;;;7.13;3.65;;;6.40;99.90;;;;;;5033150;28;20203;-70
2022/03/15 02:21:29;;;;;;;2.88;2.53;;;6.40;99.90;;;;;;5035315;28;20685;-69
2022/03/15 02:23:56;;;;;;;3.53;3.22;;;6.40;99.90;;;;;;5028571;28;20212;-69
2022/03/15 02:26:23;;;;;;;8.80;5.13;;;6.40;99.90;;;;;;5030294;28;20217;-70
2022/03/15 02:28:50;;;;;;;3.33;3.10;;;6.40;99.90;;;;;;5028606;28;20722;-70
2022/03/15 02:31:16;;;;;;;3.13;2.30;;;6.40;99.90;;;;;;5028740;28;20834;-70
2022/03/15 02:33:43;;;;;;;4.07;3.00;;;6.50;99.90;;;;;;5027924;28;20623;-70
2022/03/15 02:36:10;;;;;;;3.70;2.75;;;6.40;99.90;;;;;;5023520;28;20340;-70
2022/03/15 02:38:38;;;;;;;6.95;4.60;;;6.40;99.90;;;;;;5029764;28;20209;-70
2022/03/15 02:41:06;;;;;;;3.83;3.47;;;6.40;99.90;;;;;;5027625;28;20260;-69
2022/03/15 02:43:33;;;;;;;8.20;3.88;;;6.40;99.90;;;;;;5029540;28;20259;-69
2022/03/15 02:45:59;;;;;;;3.60;2.42;;;6.40;99.90;;;;;;5031664;28;20943;-70
2022/03/15 02:48:26;;;;;;;2.75;2.55;;;6.40;99.90;;;;;;5029387;28;20207;-70
2022/03/15 02:50:53;;;;;;;5.40;3.15;;;6.40;99.90;;;;;;5029231;28;20703;-70
2022/03/15 02:53:20;;;;;;;3.00;2.70;;;6.40;99.90;;;;;;5027189;28;20461;-71
2022/03/15 02:55:49;;;;;;;4.75;3.15;;;6.40;99.90;;;;;;5028905;28;20208;-69
2022/03/15 02:58:16;;;;;;;3.95;2.70;;;6.30;99.90;;;;;;5027255;28;20269;-71
2022/03/15 03:00:43;;;;;;;3.20;2.63;;;6.30;99.90;;;;;;5027703;28;20222;-69
2022/03/15 03:03:09;;;;;;;3.28;3.03;;;6.30;99.90;;;;;;5028302;28;20198;-70
2022/03/15 03:05:36;;;;;;;6.60;3.70;;;6.30;99.90;;;;;;5029242;28;20321;-70
2022/03/15 03:08:04;;;;;;;7.35;3.78;;;6.30;99.90;;;;;;5035395;28;20683;-70
2022/03/15 03:10:31;;;;;;;4.07;3.13;;;6.30;99.90;;;;;;5035939;28;20276;-70
2022/03/15 03:13:00;;;;;;;3.03;2.75;;;6.20;99.90;;;;;;5027596;28;20745;-71
2022/03/15 03:15:27;;;;;;;3.03;2.53;;;6.20;99.90;;;;;;5028933;28;20256;-70
2022/03/15 03:17:54;;;;;;;13.32;4.88;;;6.20;99.90;;;;;;5019366;28;20204;-71
2022/03/15 03:20:22;;;;;;;4.18;3.58;;;6.10;99.90;;;;;;5031879;28;20719;-70
2022/03/15 03:22:50;;;;;;;3.85;2.90;;;6.10;99.90;;;;;;5043715;28;20207;-70
2022/03/15 03:25:17;;;;;;;8.32;3.47;;;6.10;99.90;;;;;;5028606;28;20242;-72
2022/03/15 03:27:46;;;;;;;4.03;2.72;;;6.10;99.90;;;;;;5028586;28;20734;-69
2022/03/15 03:30:14;;;;;;;4.43;3.08;;;6.20;99.90;;;;;;5028157;28;20226;-70
2022/03/15 03:32:41;;;;;;;4.65;2.92;;;6.20;99.90;;;;;;5027266;28;20232;-69
2022/03/15 03:35:08;;;;;;;3.58;2.85;;;6.20;99.90;;;;;;5026944;28;20203;-69
2022/03/15 03:37:35;;;;;;;3.30;2.65;;;6.30;99.90;;;;;;5035677;28;20206;-69
2022/03/15 03:40:07;;;;;;;5.25;2.60;;;6.20;99.90;;;;;;5028244;28;20717;-70
2022/03/15 03:42:35;;;;;;;3.47;3.17;;;6.20;99.90;;;;;;5026509;28;20293;-70
2022/03/15 03:45:02;;;;;;;3.17;2.88;;;6.20;99.90;;;;;;5028282;28;20215;-70
2022/03/15 03:47:30;;;;;;;3.45;3.00;;;6.20;99.90;;;;;;5027871;28;20211;-70
2022/03/15 03:49:57;;;;;;;8.13;3.40;;;6.20;99.90;;;;;;5033623;28;20241;-71
2022/03/15 03:52:23;;;;;;;4.28;3.25;;;6.20;99.90;;;;;;5028531;28;20271;-70
2022/03/15 03:54:50;;;;;;;5.82;3.58;;;6.10;99.90;;;;;;5035228;28;20203;-70
2022/03/15 03:57:17;;;;;;;5.07;3.30;;;6.20;99.90;;;;;;5028800;28;20220;-71
2022/03/15 03:59:44;;;;;;;4.70;3.05;;;6.20;99.90;;;;;;5028796;28;20247;-70
2022/03/15 04:02:10;;;;;;;3.92;3.25;;;6.20;99.90;;;;;;5028307;28;20214;-69
2022/03/15 04:04:38;;;;;;;5.05;2.40;;;6.20;99.90;;;;;;5038128;28;20200;-69
2022/03/15 04:07:11;;;;;;;6.38;3.88;;;6.20;99.90;;;;;;5025855;28;20262;-70
2022/03/15 04:09:39;;;;;;;2.42;2.30;;;6.20;99.90;;;;;;5038523;28;20308;-71
2022/03/15 04:12:06;;;;;;;4.25;3.53;;;6.20;99.90;;;;;;5027278;28;20297;-70
2022/03/15 04:14:35;;;;;;;11.38;2.95;;;6.20;99.90;;;;;;5034172;28;20202;-70
2022/03/15 04:17:02;;;;;;;3.30;2.05;;;6.20;99.90;;;;;;5027933;28;20217;-71
2022/03/15 04:19:29;;;;;;;3.42;2.15;;;6.20;99.90;;;;;;5026088;28;20229;-70
2022/03/15 04:21:57;;;;;;;2.20;2.00;;;6.20;99.90;;;;;;5028608;28;20277;-70
2022/03/15 04:24:23;;;;;;;2.88;2.40;;;6.20;99.90;;;;;;5027624;28;20210;-70
2022/03/15 04:26:50;;;;;;;3.33;2.80;;;6.20;99.90;;;;;;5028749;28;20281;-70
2022/03/15 04:29:17;;;;;;;4.68;4.00;;;6.20;99.90;;;;;;5026817;28;20207;-70
2022/03/15 04:31:43;;;;;;;3.70;2.35;;;6.20;99.90;;;;;;5027073;28;20222;-69
2022/03/15 04:34:10;;;;;;;3.90;2.88;;;6.20;99.90;;;;;;5027457;28;20206;-69
2022/03/15 04:36:37;;;;;;;3.50;3.13;;;6.20;99.90;;;;;;5030782;28;20236;-69
2022/03/15 04:39:05;;;;;;;2.45;2.25;;;6.20;99.90;;;;;;5030706;28;20283;-69
2022/03/15 04:41:32;;;;;;;3.10;2.20;;;6.20;99.90;;;;;;5022947;28;20218;-71
2022/03/15 04:43:59;;;;;;;2.17;2.08;;;6.20;99.90;;;;;;5027432;28;20198;-70
2022/03/15 04:46:25;;;;;;;4.43;2.65;;;6.20;99.90;;;;;;5027506;28;20950;-71
2022/03/15 04:48:53;;;;;;;4.05;2.42;;;6.20;99.90;;;;;;5027908;28;20202;-70
2022/03/15 04:51:20;;;;;;;4.25;2.65;;;6.20;99.90;;;;;;5026385;28;20649;-70
2022/03/15 04:53:48;;;;;;;3.22;2.95;;;6.20;99.90;;;;;;5025622;28;20291;-73
2022/03/15 04:56:17;;;;;;;40.78;38.85;;;6.10;99.90;;;;;;5026677;28;20234;-72
2022/03/15 04:58:43;;;;;;;4.90;2.90;;;6.10;99.90;;;;;;5034926;28;20206;-72
2022/03/15 05:01:10;;;;;;;4.93;2.58;;;6.10;99.90;;;;;;5026281;28;20280;-72
2022/03/15 05:03:37;;;;;;;82.00;79.22;;;6.10;99.90;;;;;;5027503;28;20207;-71
2022/03/15 05:06:04;;;;;;;144.65;139.05;;;6.10;99.90;;;;;;5029418;28;20209;-71
2022/03/15 05:08:31;;;;;;;245.75;237.13;;;6.10;99.90;;;;;;5041471;28;20216;-71
2022/03/15 05:11:06;;;;;;;3.50;2.00;;;6.10;99.90;;;;;;5032570;28;20233;-69
2022/03/15 05:13:35;;;;;;;5.97;2.92;;;6.10;99.90;;;;;;5017761;28;20212;-74
2022/03/15 05:16:01;;;;;;;2.45;2.05;;;6.10;99.90;;;;;;5031414;28;20729;-73
2022/03/15 05:18:28;;;;;;;3.55;3.10;;;6.10;99.90;;;;;;5027954;28;20273;-72
2022/03/15 05:20:55;;;;;;;4.03;2.47;;;6.10;99.90;;;;;;5030073;28;20217;-73
2022/03/15 05:23:21;;;;;;;3.03;2.28;;;6.10;99.90;;;;;;5030643;28;20213;-72
2022/03/15 05:25:48;;;;;;;3.55;3.10;;;6.20;99.90;;;;;;5028887;28;20202;-72
2022/03/15 05:28:15;;;;;;;2.22;2.13;;;6.20;99.90;;;;;;5028642;28;20207;-73
2022/03/15 05:30:43;;;;;;;2.88;2.67;;;6.20;99.90;;;;;;5031108;28;20224;-73
2022/03/15 05:33:10;;;;;;;1.98;1.73;;;6.20;99.90;;;;;;5027662;28;20206;-73
2022/03/15 05:35:36;;;;;;;4.45;2.72;;;6.20;99.90;;;;;;5029262;28;20199;-74
2022/03/15 05:38:04;;;;;;;2.10;1.70;;;6.20;99.90;;;;;;5029065;28;20211;-75
2022/03/15 05:40:31;;;;;;;2.55;1.95;;;6.20;99.90;;;;;;5029629;28;20236;-74
2022/03/15 05:42:58;;;;;;;2.42;2.17;;;6.20;99.90;;;;;;5024689;28;20256;-74
2022/03/15 05:45:25;;;;;;;3.13;2.25;;;6.20;99.90;;;;;;5033482;28;20217;-74
2022/03/15 05:47:54;;;;;;;2.65;2.45;;;6.20;99.90;;;;;;5018018;28;20219;-72
2022/03/15 05:50:21;;;;;;;2.67;2.47;;;6.20;99.90;;;;;;5027545;28;20229;-74
2022/03/15 05:52:47;;;;;;;2.58;2.38;;;6.20;99.90;;;;;;5028232;28;20205;-73
2022/03/15 05:55:14;;;;;;;2.60;2.40;;;6.20;99.90;;;;;;5030224;28;20207;-73
2022/03/15 05:57:42;;;;;;;2.35;2.15;;;6.20;99.90;;;;;;5029783;28;20260;-72
2022/03/15 06:00:11;;;;;;;2.83;2.30;;;6.20;99.90;;;;;;5029053;28;20227;-73
2022/03/15 06:02:38;;;;;;;4.75;2.55;;;6.30;99.90;;;;;;5029262;28;20750;-74
2022/03/15 06:05:07;;;;;;;2.83;2.10;;;6.30;99.90;;;;;;5030255;28;20859;-74
2022/03/15 06:07:34;;;;;;;5.10;2.92;;;6.30;99.90;;;;;;5030180;28;20260;-75
2022/03/15 06:10:00;;;;;;;2.25;2.00;;;6.30;99.90;;;;;;5028762;28;20228;-75
2022/03/15 06:12:27;;;;;;;2.35;2.17;;;6.30;99.90;;;;;;5044208;28;20236;-72
2022/03/15 06:14:54;;;;;;;3.28;2.55;;;6.30;99.90;;;;;;5030922;28;20276;-74
2022/03/15 06:17:21;;;;;;;3.70;3.40;;;6.40;99.90;;;;;;5030653;28;20286;-72
2022/03/15 06:19:48;;;;;;;3.40;2.30;;;6.40;99.90;;;;;;5033187;28;20275;-72
2022/03/15 06:22:16;;;;;;;2.60;2.40;;;6.40;99.90;;;;;;5024672;28;20274;-72
2022/03/15 06:24:42;;;;;;;2.65;2.45;;;6.50;99.90;;;;;;5027744;28;20210;-72
2022/03/15 06:27:09;;;;;;;1.80;1.70;;;6.50;99.90;;;;;;5026794;28;20262;-72
2022/03/15 06:29:36;;;;;;;4.53;2.38;;;6.50;99.90;;;;;;5028494;28;20261;-72
2022/03/15 06:32:03;;;;;;;3.53;2.13;;;6.50;99.90;;;;;;5031686;28;20251;-72
2022/03/15 06:34:30;;;;;;;3.92;2.17;;;6.50;99.90;;;;;;5033954;28;20209;-72
2022/03/15 06:36:58;;;;;;;1.90;1.80;;;6.60;99.90;;;;;;5030192;28;20205;-73
2022/03/15 06:39:26;;;;;;;2.60;2.40;;;6.60;99.90;;;;;;5030065;28;20237;-73
2022/03/15 06:41:53;;;;;;;2.95;2.35;;;6.60;99.90;;;;;;5034996;28;20207;-74
2022/03/15 06:44:20;;;;;;;2.72;2.22;;;6.70;99.90;;;;;;5038377;28;20214;-74
2022/03/15 06:46:46;;;;;;;2.13;2.03;;;6.70;99.90;;;;;;5029786;28;20202;-72
2022/03/15 06:49:13;;;;;;;5.80;2.28;;;6.70;99.90;;;;;;5030335;28;20627;-73
2022/03/15 06:51:40;;;;;;;3.58;2.45;;;6.80;99.90;;;;;;5026858;28;20775;-73
2022/03/15 06:54:07;;;;;;;3.70;1.90;;;6.80;99.90;;;;;;5029913;28;20283;-74
2022/03/15 06:56:37;;;;;;;1.98;1.70;;;6.90;99.90;;;;;;5029015;28;20209;-73
2022/03/15 06:59:04;;;;;;;1.70;1.60;;;6.90;99.90;;;;;;5029718;28;20281;-73
2022/03/15 07:01:31;;;;;;;2.40;2.20;;;7.00;99.90;;;;;;5030171;28;20201;-71
2022/03/15 07:03:57;;;;;;;2.95;2.75;;;7.00;99.90;;;;;;5025069;28;20202;-72
2022/03/15 07:06:24;;;;;;;3.10;2.17;;;7.10;99.90;;;;;;5031988;28;20194;-72
2022/03/15 07:08:51;;;;;;;3.08;2.78;;;7.10;99.90;;;;;;5029786;28;20691;-73
2022/03/15 07:11:18;;;;;;;2.05;1.83;;;7.20;99.90;;;;;;5036277;28;20371;-73
2022/03/15 07:13:46;;;;;;;2.35;2.15;;;7.20;99.90;;;;;;5042939;28;20259;-72
2022/03/15 07:16:12;;;;;;;2.53;2.33;;;7.20;99.90;;;;;;5022697;28;20269;-73
2022/03/15 07:18:39;;;;;;;3.40;3.10;;;7.30;99.90;;;;;;5030356;28;20217;-72
2022/03/15 07:21:06;;;;;;;2.50;2.30;;;7.30;99.90;;;;;;5029668;28;20214;-72
2022/03/15 07:23:32;;;;;;;3.10;2.13;;;7.40;99.90;;;;;;5029074;28;20206;-73
2022/03/15 07:25:59;;;;;;;2.75;2.47;;;7.40;99.90;;;;;;5016322;28;20206;-73
2022/03/15 07:28:26;;;;;;;2.08;1.95;;;7.30;99.90;;;;;;5028168;28;20255;-72
2022/03/15 07:30:54;;;;;;;2.70;2.50;;;7.40;99.90;;;;;;5029832;28;20222;-72
2022/03/15 07:33:20;;;;;;;4.18;2.75;;;7.40;99.90;;;;;;5028571;28;20268;-72
2022/03/15 07:35:47;;;;;;;2.95;2.63;;;7.40;99.90;;;;;;5026179;28;20202;-71
2022/03/15 07:38:17;;;;;;;4.55;2.25;;;7.40;99.90;;;;;;5031244;28;20575;-73
2022/03/15 07:40:44;;;;;;;2.40;2.20;;;7.40;99.90;;;;;;5023393;28;20233;-72
2022/03/15 07:43:11;;;;;;;1.75;1.65;;;7.50;99.90;;;;;;5033320;28;20189;-72
2022/03/15 07:45:37;;;;;;;6.40;2.58;;;7.50;99.90;;;;;;5027334;28;20194;-73
2022/03/15 07:48:06;;;;;;;3.88;2.60;;;7.60;99.90;;;;;;5029496;28;20238;-73
2022/03/15 07:50:34;;;;;;;4.32;2.28;;;7.60;99.90;;;;;;5028606;28;20223;-73
2022/03/15 07:53:00;;;;;;;3.20;2.70;;;7.70;99.90;;;;;;5022794;28;20841;-71
2022/03/15 07:55:27;;;;;;;1.77;1.55;;;7.70;99.90;;;;;;5027160;28;20324;-74
2022/03/15 07:57:54;;;;;;;2.35;2.15;;;7.80;99.90;;;;;;5025880;28;20261;-72
2022/03/15 08:00:20;;;;;;;3.90;2.10;;;7.90;99.90;;;;;;5029657;28;20222;-73
2022/03/15 08:02:47;;;;;;;1.95;1.85;;;7.90;99.90;;;;;;5028732;28;20199;-71
2022/03/15 08:05:15;;;;;;;2.15;1.95;;;8.00;99.90;;;;;;5027450;28;20198;-71
2022/03/15 08:07:42;;;;;;;2.60;2.20;;;8.00;99.90;;;;;;5025472;28;20202;-70
2022/03/15 08:10:10;;;;;;;2.33;2.10;;;8.20;99.90;;;;;;5027631;28;20222;-72
2022/03/15 08:12:38;;;;;;;4.03;1.67;;;8.20;99.90;;;;;;5026544;28;20337;-71
2022/03/15 08:15:06;;;;;;;2.88;2.65;;;8.20;99.90;;;;;;5026440;28;20983;-71
2022/03/15 08:17:33;;;;;;;2.40;2.20;;;8.30;99.90;;;;;;5025222;28;20209;-71
2022/03/15 08:20:00;;;;;;;6.15;2.80;;;8.40;99.90;;;;;;5024847;28;20372;-71
2022/03/15 08:22:29;;;;;;;2.73;2.40;;;8.40;99.90;;;;;;5035779;28;20671;-71
2022/03/15 08:24:55;;;;;;;2.08;1.70;;;8.50;99.90;;;;;;5030519;28;20449;-71
2022/03/15 08:27:22;;;;;;;2.25;2.05;;;8.50;99.90;;;;;;5028052;28;20207;-72
2022/03/15 08:29:50;;;;;;;3.37;2.07;;;8.60;99.90;;;;;;5027601;28;20249;-70
2022/03/15 08:32:17;;;;;;;2.30;2.10;;;8.60;99.90;;;;;;5029130;28;20492;-71
2022/03/15 08:34:43;;;;;;;9.40;4.43;;;8.60;99.90;;;;;;5028824;28;20205;-71
2022/03/15 08:37:11;;;;;;;2.33;2.03;;;8.70;99.90;;;;;;5024464;28;20959;-72
2022/03/15 08:39:39;;;;;;;2.50;1.87;;;8.70;99.90;;;;;;5030805;28;20534;-72
2022/03/15 08:42:05;;;;;;;3.40;2.30;;;8.80;99.90;;;;;;5029771;28;20441;-72
2022/03/15 08:44:32;;;;;;;3.80;1.70;;;8.80;99.90;;;;;;5024895;28;20215;-72
2022/03/15 08:46:59;;;;;;;3.27;2.00;;;8.90;99.90;;;;;;5028420;28;20453;-72
2022/03/15 08:49:26;;;;;;;2.20;2.00;;;8.90;99.90;;;;;;5029652;28;20477;-72
2022/03/15 08:51:52;;;;;;;2.50;1.93;;;8.90;99.90;;;;;;5029001;28;20487;-71
2022/03/15 08:54:21;;;;;;;3.77;2.30;;;9.00;99.90;;;;;;5022701;28;20514;-71
2022/03/15 08:56:49;;;;;;;2.13;1.90;;;9.10;99.90;;;;;;5027625;28;20456;-71
2022/03/15 08:59:16;;;;;;;3.10;2.17;;;9.10;99.90;;;;;;5038852;28;20462;-72
2022/03/15 09:01:43;;;;;;;2.60;1.97;;;9.20;99.90;;;;;;5055663;22;21171;-75
2022/03/15 09:04:10;;;;;;;2.30;2.10;;;9.30;99.90;;;;;;5034006;28;20476;-75
2022/03/15 09:06:37;;;;;;;2.90;2.10;;;9.40;99.90;;;;;;5036089;28;20509;-75
2022/03/15 09:09:03;;;;;;;7.30;2.03;;;9.50;99.90;;;;;;5033605;28;20449;-74
2022/03/15 09:11:33;;;;;;;2.73;2.50;;;9.50;99.90;;;;;;5032717;28;20591;-74
2022/03/15 09:14:01;;;;;;;2.30;2.10;;;9.50;99.90;;;;;;5038679;28;20468;-76
2022/03/15 09:16:28;;;;;;;2.17;1.97;;;9.60;99.90;;;;;;5032940;28;20441;-75
2022/03/15 09:18:55;;;;;;;1.80;1.70;;;9.60;99.90;;;;;;5033708;28;20457;-76
2022/03/15 09:21:21;;;;;;;2.17;2.00;;;9.60;99.90;;;;;;5030598;28;20469;-74
2022/03/15 09:23:49;;;;;;;2.70;2.20;;;9.70;99.90;;;;;;5043778;28;20452;-73
2022/03/15 09:26:16;;;;;;;4.40;2.00;;;9.70;99.90;;;;;;5035316;28;20847;-74
2022/03/15 09:28:44;;;;;;;1.50;1.40;;;9.70;99.90;;;;;;5033293;28;20457;-75
2022/03/15 09:31:12;;;;;;;1.60;1.50;;;9.70;99.90;;;;;;5031040;28;20473;-76
2022/03/15 09:33:39;;;;;;;1.60;1.50;;;9.80;99.90;;;;;;5033532;28;20485;-74
2022/03/15 09:36:06;;;;;;;1.50;1.40;;;9.80;99.90;;;;;;5035898;28;20446;-74
2022/03/15 09:38:33;;;;;;;4.53;2.40;;;9.80;99.90;;;;;;5032836;28;20459;-73
2022/03/15 09:41:04;;;;;;;2.37;2.10;;;9.70;99.90;;;;;;5030086;28;20473;-73
2022/03/15 09:43:35;;;;;;;1.83;1.70;;;9.80;99.90;;;;;;5028976;28;20481;-74
2022/03/15 09:46:04;;;;;;;1.73;1.60;;;9.80;99.90;;;;;;5028153;28;20551;-74
2022/03/15 09:48:32;;;;;;;1.37;1.17;;;9.80;99.90;;;;;;5037180;28;21020;-73
2022/03/15 09:51:00;;;;;;;2.27;1.83;;;9.80;99.90;;;;;;5037385;28;20523;-74
2022/03/15 09:53:27;;;;;;;1.50;1.40;;;9.80;99.90;;;;;;5036190;28;20485;-74
2022/03/15 09:55:54;;;;;;;1.73;1.63;;;9.80;99.90;;;;;;5033735;28;21023;-73
2022/03/15 09:58:22;;;;;;;3.80;2.00;;;9.80;99.90;;;;;;5034417;28;20555;-73
2022/03/15 10:00:52;;;;;;;4.20;2.07;;;9.80;99.90;;;;;;5023124;28;20481;-74
2022/03/15 10:03:19;;;;;;;2.20;1.93;;;9.90;99.90;;;;;;5032062;28;20446;-73
2022/03/15 10:05:49;;;;;;;3.20;1.70;;;10.00;99.90;;;;;;5031930;28;20449;-73
2022/03/15 10:08:17;;;;;;;3.40;2.23;;;10.00;99.90;;;;;;5038103;28;22113;-73
2022/03/15 10:10:44;;;;;;;4.10;2.17;;;10.00;99.90;;;;;;5033274;28;20470;-74
2022/03/15 10:13:11;;;;;;;3.47;2.03;;;10.00;99.90;;;;;;5032540;28;20480;-73
2022/03/15 10:15:38;;;;;;;2.70;1.93;;;10.00;99.90;;;;;;5040097;28;20465;-76
2022/03/15 10:18:06;;;;;;;3.07;1.87;;;10.00;99.90;;;;;;5037040;28;20970;-71
2022/03/15 10:20:40;;;;;;;5.43;1.90;;;10.00;99.90;;;;;;5035165;28;20473;-71
2022/03/15 10:23:10;;;;;;;2.33;2.13;;;9.90;99.90;;;;;;5038689;28;20503;-73
2022/03/15 10:25:38;;;;;;;1.50;1.37;;;9.80;99.90;;;;;;5032909;28;20914;-75
2022/03/15 10:28:06;;;;;;;2.13;1.70;;;9.80;99.90;;;;;;5038694;28;20450;-73
2022/03/15 10:30:34;;;;;;;5.17;2.00;;;9.80;99.90;;;;;;5035554;28;20543;-74
2022/03/15 10:33:01;;;;;;;2.33;2.17;;;9.80;99.90;;;;;;5030421;28;20485;-73
2022/03/15 10:35:32;;;;;;;6.00;2.77;;;9.90;99.90;;;;;;5034800;28;20454;-71
2022/03/15 10:37:59;;;;;;;1.93;1.63;;;10.00;99.90;;;;;;5035751;28;20495;-71
2022/03/15 10:40:34;;;;;;;2.87;1.93;;;10.10;99.90;;;;;;5037324;28;20506;-71
2022/03/15 10:43:06;;;;;;;2.47;2.23;;;10.20;99.90;;;;;;5035291;28;20452;-71
2022/03/15 10:45:34;;;;;;;3.97;2.03;;;10.30;99.90;;;;;;5031907;28;21001;-72
2022/03/15 10:48:03;;;;;;;4.10;1.83;;;10.30;99.90;;;;;;5036233;28;20453;-70
2022/03/15 10:50:33;;;;;;;2.47;2.20;;;10.20;99.90;;;;;;5036286;28;20522;-70
2022/03/15 10:53:07;;;;;;;4.50;2.67;;;10.10;99.90;;;;;;5034646;28;20474;-70
2022/03/15 10:55:35;;;;;;;3.10;2.23;;;10.00;99.90;;;;;;5039600;28;21011;-70
2022/03/15 10:58:05;;;;;;;3.10;2.80;;;10.00;99.90;;;;;;5036807;28;20488;-70
2022/03/15 11:00:35;;;;;;;4.80;2.70;;;10.00;99.90;;;;;;5036455;28;21068;-71
2022/03/15 11:03:03;;;;;;;4.00;2.53;;;10.10;99.90;;;;;;5031302;28;20460;-71
2022/03/15 11:05:31;;;;;;;2.20;2.00;;;10.10;99.90;;;;;;5035392;28;20515;-71
2022/03/15 11:08:03;;;;;;;24.95;23.67;;;10.10;99.90;;;;;;5032292;28;20836;-70
2022/03/15 11:10:30;;;;;;;2.83;2.63;;;10.10;99.90;;;;;;5038770;28;20230;-70
2022/03/15 11:13:02;;;;;;;2.93;2.47;;;10.00;99.90;;;;;;5029893;28;20481;-72
2022/03/15 11:15:31;;;;;;;3.10;2.43;;;9.90;99.90;;;;;;5037139;28;20452;-72
2022/03/15 11:17:59;;;;;;;2.43;2.23;;;9.80;99.90;;;;;;5039764;28;20460;-70
2022/03/15 11:20:28;;;;;;;7.83;3.00;;;9.70;99.90;;;;;;5042383;28;20478;-73
2022/03/15 11:23:00;;;;;;;3.10;2.80;;;9.70;99.90;;;;;;5033785;28;20449;-71
2022/03/15 11:25:34;;;;;;;3.00;2.70;;;9.60;99.90;;;;;;5029599;28;21023;-71
2022/03/15 11:28:04;;;;;;;2.20;2.00;;;9.60;99.90;;;;;;5027909;28;20813;-71
2022/03/15 11:30:32;;;;;;;3.77;3.20;;;9.60;99.90;;;;;;5033831;28;20905;-71
2022/03/15 11:33:01;;;;;;;4.20;2.23;;;9.50;99.90;;;;;;5026388;28;20485;-71
2022/03/15 11:35:29;;;;;;;2.80;2.37;;;9.50;99.90;;;;;;5038109;28;20444;-71
2022/03/15 11:37:58;;;;;;;2.73;2.53;;;9.50;99.90;;;;;;5027943;28;20461;-72
2022/03/15 11:40:24;;;;;;;2.40;2.23;;;9.50;99.90;;;;;;5034402;28;21030;-71
2022/03/15 11:42:57;;;;;;;3.53;2.77;;;9.50;99.90;;;;;;5028218;28;20822;-71
2022/03/15 11:45:28;;;;;;;4.20;2.20;;;9.50;99.90;;;;;;5029287;28;20506;-72
2022/03/15 11:48:04;;;;;;;2.70;2.50;;;9.50;99.90;;;;;;5033547;28;20972;-72
2022/03/15 11:50:38;;;;;;;1.93;1.83;;;9.50;99.90;;;;;;5037605;28;21032;-73
2022/03/15 11:53:09;;;;;;;2.87;2.60;;;9.50;99.90;;;;;;5032481;28;20485;-76
2022/03/15 11:55:46;;;;;;;7.43;2.30;;;9.50;99.90;;;;;;5028306;28;20460;-72
2022/03/15 11:58:23;;;;;;;1.97;1.83;;;9.50;99.90;;;;;;5031122;28;20460;-73
2022/03/15 12:00:52;;;;;;;2.23;2.00;;;9.60;99.90;;;;;;5031263;28;20477;-72
2022/03/15 12:03:21;;;;;;;2.60;2.40;;;9.60;99.90;;;;;;5032481;28;20448;-72
2022/03/15 12:05:50;;;;;;;2.40;2.20;;;9.60;99.90;;;;;;5036928;28;20458;-73
2022/03/15 12:08:19;;;;;;;6.23;1.83;;;9.60;99.90;;;;;;5027995;28;20464;-74
2022/03/15 12:10:51;;;;;;;1.80;1.70;;;9.50;99.90;;;;;;5034367;28;20465;-73
2022/03/15 12:13:20;;;;;;;3.93;2.90;;;9.60;99.90;;;;;;5033933;28;20533;-73
2022/03/15 12:15:50;;;;;;;3.90;2.47;;;9.60;99.90;;;;;;5029635;28;20460;-73
2022/03/15 12:18:33;;;;;;;2.63;2.37;;;9.60;99.90;;;;;;5040569;28;20463;-73
2022/03/15 12:21:02;;;;;;;2.27;2.10;;;9.60;99.90;;;;;;5029567;28;20909;-72
2022/03/15 12:23:30;;;;;;;3.00;2.07;;;9.60;99.90;;;;;;5032152;28;20946;-77
2022/03/15 12:25:58;;;;;;;3.10;2.47;;;9.50;99.90;;;;;;5029765;28;20502;-75
2022/03/15 12:28:29;;;;;;;2.33;2.10;;;9.50;99.90;;;;;;5037708;28;21150;-73
2022/03/15 12:31:04;;;;;;;5.00;2.50;;;9.60;99.90;;;;;;5023109;28;20481;-74
2022/03/15 12:33:34;;;;;;;3.90;2.27;;;9.60;99.90;;;;;;5031672;28;20488;-74
2022/03/15 12:36:04;;;;;;;6.03;3.30;;;9.70;99.90;;;;;;5036962;28;20458;-73
2022/03/15 12:38:35;;;;;;;2.67;1.93;;;9.70;99.90;;;;;;5036464;28;20532;-75
2022/03/15 12:41:02;;;;;;;2.80;2.10;;;9.70;99.90;;;;;;5033421;28;20482;-75
2022/03/15 12:43:30;;;;;;;3.13;2.63;;;9.80;99.90;;;;;;5035287;28;20544;-73
2022/03/15 12:46:00;;;;;;;5.63;2.80;;;9.90;99.90;;;;;;5033505;28;20449;-75
2022/03/15 12:48:32;;;;;;;3.57;2.63;;;9.90;99.90;;;;;;5031126;28;20835;-74
2022/03/15 12:51:01;;;;;;;2.93;2.10;;;10.00;99.90;;;;;;5026413;28;21002;-77
2022/03/15 12:53:39;;;;;;;3.10;2.73;;;10.00;99.90;;;;;;5031133;28;20485;-75
2022/03/15 12:56:10;;;;;;;3.43;2.83;;;9.90;99.90;;;;;;5045206;28;20448;-76
2022/03/15 12:58:37;;;;;;;3.50;2.40;;;9.80;99.90;;;;;;5030652;28;20977;-75